KBEH

Southwest Michigan Regional Airport

Benton Harbor, Michigan, USA
METAR KBEH 172053Z AUTO 13005KT 8SM CLR 03/M02 A3000 RMK AO2 SLP165 T00281017 58016 $
Observed Flight Rules
Dec-17 @ 20:53 UTC (26 minutes ago) Visual Flight Rules
Wind Visibility Clouds
130° at 5 knots 8 miles
  • Clear skies
Temperatures Readings
Current 3°C / 37°F
Dewpoint -2°C / 28°F
Humidity 70%
Altimeter 30" Hg
Pressure 1016.5 hPa
Elevation 191
METAR KBEH 172053Z AUTO 13005KT 8SM CLR 03/M02 A3000 RMK AO2 SLP165 T00281017 58016 $
Observed Flight Rules
Dec-17 @ 20:53 UTC
(26 minutes ago)
VFR
Wind Visibility
130° at 5 knots 8 miles
Clouds
  • Clear skies
Temperature Dewpoint
3°C / 37°F -2°C / 28°F
Humidity Altimeter Pressure
70% 30" Hg 1016.5 hPa